Time;durP1;ratioP1;P1;durP2;ratioP2;P2;SDS_P1;SDS_P2;PMS_P1;PMS_P2;Temp;Humidity;BMP_temperature;BMP_pressure;BME280_temperature;BME280_humidity;BME280_pressure;Samples;Min_cycle;Max_cycle;Signal;HPM_P1;HPM_P2
2023/01/04 00:01:04;;;;;;;5.13;1.80;;;7.70;99.90;;;;;;5093362;28;20537;-68
2023/01/04 00:03:30;;;;;;;5.97;1.80;;;7.60;99.90;;;;;;5093462;28;20044;-68
2023/01/04 00:05:58;;;;;;;4.05;1.50;;;7.70;99.90;;;;;;5075613;28;20066;-67
2023/01/04 00:08:24;;;;;;;4.65;1.17;;;7.70;99.90;;;;;;5093231;28;20476;-68
2023/01/04 00:10:50;;;;;;;4.00;1.90;;;7.60;99.90;;;;;;5093508;28;20051;-67
2023/01/04 00:13:15;;;;;;;2.70;1.30;;;7.70;99.90;;;;;;5094009;28;20372;-67
2023/01/04 00:15:41;;;;;;;5.20;1.50;;;7.70;99.90;;;;;;5093186;28;20490;-68
2023/01/04 00:18:07;;;;;;;2.25;1.50;;;7.60;99.90;;;;;;5093101;28;20044;-67
2023/01/04 00:20:32;;;;;;;4.35;1.50;;;7.70;99.90;;;;;;5093141;28;20054;-67
2023/01/04 00:22:58;;;;;;;4.70;1.52;;;7.70;99.90;;;;;;5075073;28;20048;-67
2023/01/04 00:25:24;;;;;;;7.10;1.40;;;7.70;99.90;;;;;;5075280;28;20044;-68
2023/01/04 00:27:51;;;;;;;4.68;1.50;;;7.70;99.90;;;;;;5093055;28;20055;-67
2023/01/04 00:30:17;;;;;;;4.55;1.60;;;7.70;99.90;;;;;;5075745;28;20043;-67
2023/01/04 00:32:43;;;;;;;4.72;1.40;;;7.70;99.90;;;;;;5096787;28;20437;-67
2023/01/04 00:35:10;;;;;;;2.60;1.50;;;7.70;99.90;;;;;;5078578;28;20044;-67
2023/01/04 00:37:36;;;;;;;4.75;1.35;;;7.70;99.90;;;;;;5078607;28;20131;-68
2023/01/04 00:40:03;;;;;;;3.20;1.70;;;7.70;99.90;;;;;;5097352;28;20123;-68
2023/01/04 00:42:28;;;;;;;4.25;1.30;;;7.70;99.90;;;;;;5078591;28;20036;-68
2023/01/04 00:44:54;;;;;;;3.53;1.40;;;7.70;99.90;;;;;;5062782;28;20036;-67
2023/01/04 00:47:20;;;;;;;4.10;1.50;;;7.80;99.90;;;;;;5078431;28;20048;-68
2023/01/04 00:49:45;;;;;;;5.00;1.27;;;7.70;99.90;;;;;;5096478;28;20048;-68
2023/01/04 00:52:11;;;;;;;5.97;1.45;;;7.90;99.90;;;;;;5097153;28;20036;-68
2023/01/04 00:54:37;;;;;;;3.80;1.48;;;7.70;99.90;;;;;;5078791;28;20048;-67
2023/01/04 00:57:04;;;;;;;3.53;1.23;;;7.70;99.90;;;;;;5078418;28;20084;-67
2023/01/04 00:59:30;;;;;;;4.22;1.60;;;7.80;99.90;;;;;;5078111;28;20075;-68
2023/01/04 01:01:56;;;;;;;2.70;1.27;;;7.70;99.90;;;;;;5078413;28;20067;-68
2023/01/04 01:04:23;;;;;;;2.75;1.25;;;7.80;99.90;;;;;;5096999;28;20052;-68
2023/01/04 01:06:49;;;;;;;3.28;1.25;;;7.70;99.90;;;;;;5061918;28;20052;-69
2023/01/04 01:09:16;;;;;;;4.93;1.50;;;7.70;99.90;;;;;;5096142;28;20051;-68
2023/01/04 01:11:42;;;;;;;3.92;1.50;;;7.70;99.90;;;;;;5096923;28;20063;-68
2023/01/04 01:14:12;;;;;;;6.78;1.85;;;7.70;99.90;;;;;;5096467;28;20040;-68
2023/01/04 01:16:38;;;;;;;4.25;1.40;;;7.80;99.90;;;;;;5096833;28;20059;-68
2023/01/04 01:19:04;;;;;;;4.53;1.30;;;7.70;99.90;;;;;;5077752;28;20044;-69
2023/01/04 01:21:31;;;;;;;2.58;1.48;;;7.70;99.90;;;;;;5078617;28;20042;-68
2023/01/04 01:23:57;;;;;;;2.63;1.30;;;7.60;99.90;;;;;;5078112;28;20044;-69
2023/01/04 01:26:24;;;;;;;5.07;1.30;;;7.60;99.90;;;;;;5095743;28;20079;-67
2023/01/04 01:28:51;;;;;;;2.90;1.40;;;8.80;99.90;;;;;;5096010;28;20040;-69
2023/01/04 01:31:19;;;;;;;3.95;1.42;;;7.60;99.90;;;;;;5077685;28;20036;-68
2023/01/04 01:33:47;;;;;;;5.75;1.50;;;7.60;99.90;;;;;;5077606;28;20048;-68
2023/01/04 01:36:14;;;;;;;2.85;1.35;;;7.50;99.90;;;;;;5095632;28;20048;-69
2023/01/04 01:38:40;;;;;;;2.40;1.55;;;7.60;99.90;;;;;;5078006;28;20082;-69
2023/01/04 01:41:07;;;;;;;3.72;1.40;;;7.60;99.90;;;;;;5095465;28;20048;-70
2023/01/04 01:43:58;;;;;;;4.47;1.60;;;7.80;99.90;;;;;;5094282;28;20504;-69
2023/01/04 01:46:24;;;;;;;4.55;1.50;;;7.60;99.90;;;;;;5096035;28;20040;-68
2023/01/04 01:48:52;;;;;;;4.35;1.30;;;7.60;99.90;;;;;;5077492;28;20058;-69
2023/01/04 01:51:18;;;;;;;4.03;1.42;;;7.60;99.90;;;;;;5077123;28;20052;-68
2023/01/04 01:53:48;;;;;;;5.68;1.63;;;7.80;99.90;;;;;;5094931;28;20084;-69
2023/01/04 01:56:16;;;;;;;5.22;1.35;;;7.60;99.90;;;;;;5094672;28;20547;-69
2023/01/04 01:58:49;;;;;;;3.35;1.45;;;7.60;99.90;;;;;;5060606;28;20051;-70
2023/01/04 02:01:15;;;;;;;2.38;1.67;;;7.60;99.90;;;;;;5077050;28;20052;-70
2023/01/04 02:03:42;;;;;;;4.57;1.58;;;7.60;99.90;;;;;;5061378;28;20052;-71
2023/01/04 02:06:11;;;;;;;5.95;1.70;;;7.80;99.90;;;;;;5094963;28;20056;-71
2023/01/04 02:08:39;;;;;;;2.72;1.20;;;7.60;99.90;;;;;;5076883;28;20036;-70
2023/01/04 02:11:05;;;;;;;5.50;1.23;;;7.50;99.90;;;;;;5076751;28;20127;-68
2023/01/04 02:16:32;;;;;;;4.30;1.23;;;7.60;99.90;;;;;;5076608;28;20052;-69
2023/01/04 02:19:32;;;;;;;2.90;1.48;;;7.60;99.90;;;;;;5095245;28;20484;-69
2023/01/04 02:22:25;;;;;;;2.65;1.30;;;7.60;99.90;;;;;;5076629;28;20088;-71
2023/01/04 02:25:14;;;;;;;4.57;1.63;;;7.60;99.90;;;;;;5094746;28;20044;-70
2023/01/04 02:28:22;;;;;;;3.38;1.10;;;7.60;99.90;;;;;;5095240;28;20048;-72
2023/01/04 02:31:00;;;;;;;7.30;2.00;;;7.60;99.90;;;;;;5039441;28;20139;-70
2023/01/04 02:33:59;;;;;;;2.47;1.13;;;7.70;99.90;;;;;;5076923;28;20138;-69
2023/01/04 02:36:29;;;;;;;4.07;1.40;;;7.50;99.90;;;;;;5076652;28;20044;-71
2023/01/04 02:39:04;;;;;;;3.60;1.60;;;7.50;99.90;;;;;;5094372;28;20048;-72
2023/01/04 02:42:15;;;;;;;3.15;1.10;;;7.50;99.90;;;;;;5060773;28;20098;-73
2023/01/04 02:44:58;;;;;;;4.43;1.30;;;7.50;99.90;;;;;;4996151;28;20054;-73
2023/01/04 02:50:32;;;;;;;2.33;1.25;;;7.60;99.90;;;;;;5080608;28;20086;-72
2023/01/04 02:53:13;;;;;;;3.60;0.95;;;7.60;99.90;;;;;;5094182;28;20097;-71
2023/01/04 02:55:39;;;;;;;4.57;1.10;;;7.60;99.90;;;;;;5093924;28;20415;-72
2023/01/04 02:58:31;;;;;;;3.65;1.00;;;7.50;99.90;;;;;;5093763;28;20126;-71
2023/01/04 03:07:41;;;;;;;2.92;0.90;;;7.60;99.90;;;;;;5094005;28;20095;-72
2023/01/04 03:10:25;;;;;;;2.60;0.90;;;7.60;99.90;;;;;;5087859;28;20472;-71
2023/01/04 03:13:07;;;;;;;3.13;0.82;;;7.80;99.90;;;;;;5093647;28;20551;-71
2023/01/04 03:15:36;;;;;;;2.85;0.90;;;7.70;99.90;;;;;;5075894;28;20153;-71
2023/01/04 03:18:25;;;;;;;2.10;0.80;;;7.70;99.90;;;;;;5075758;28;20074;-70
2023/01/04 03:20:55;;;;;;;1.35;0.77;;;7.70;99.90;;;;;;5093843;28;20055;-70
2023/01/04 03:37:41;;;;;;;3.72;0.80;;;8.00;99.90;;;;;;5094173;28;20048;-71
2023/01/04 03:48:59;;;;;;;3.03;0.60;;;7.90;99.90;;;;;;5093541;28;20055;-71
2023/01/04 03:51:29;;;;;;;0.70;0.60;;;7.90;99.90;;;;;;5075951;28;20379;-70
2023/01/04 03:54:08;;;;;;;1.88;0.55;;;8.20;99.90;;;;;;5094289;28;20191;-70
2023/01/04 03:56:40;;;;;;;1.40;0.60;;;8.00;99.90;;;;;;5092985;28;20397;-69
2023/01/04 03:59:07;;;;;;;0.73;0.52;;;8.00;99.90;;;;;;5093874;28;20043;-69
2023/01/04 04:01:35;;;;;;;1.05;0.45;;;8.10;99.90;;;;;;5093366;28;20055;-68
2023/01/04 04:09:29;;;;;;;1.08;0.50;;;8.10;99.90;;;;;;5080227;28;20052;-70
2023/01/04 04:11:55;;;;;;;0.90;0.50;;;8.20;99.90;;;;;;5097276;28;20373;-70
2023/01/04 04:14:21;;;;;;;1.20;0.55;;;8.20;99.90;;;;;;5097220;28;20071;-70
2023/01/04 04:16:46;;;;;;;1.23;0.60;;;8.20;99.90;;;;;;5097099;28;20510;-72
2023/01/04 04:19:12;;;;;;;1.58;0.50;;;8.30;99.90;;;;;;5097010;28;20047;-72
2023/01/04 04:21:38;;;;;;;2.55;0.70;;;8.50;99.90;;;;;;5097000;28;20048;-72
2023/01/04 04:24:04;;;;;;;0.82;0.60;;;8.30;99.90;;;;;;5062440;28;20044;-73
2023/01/04 04:26:30;;;;;;;1.40;0.70;;;8.40;99.90;;;;;;5079933;28;20131;-72
2023/01/04 04:28:55;;;;;;;2.22;0.73;;;8.70;99.90;;;;;;5097429;28;20523;-71
2023/01/04 04:31:21;;;;;;;1.90;0.60;;;8.50;99.90;;;;;;5097379;28;20131;-70
2023/01/04 04:33:47;;;;;;;1.20;0.60;;;8.50;99.90;;;;;;5096815;28;20450;-69
2023/01/04 04:36:12;;;;;;;0.55;0.47;;;8.60;99.90;;;;;;5096814;28;20113;-69
2023/01/04 04:38:38;;;;;;;0.90;0.60;;;8.70;99.90;;;;;;5096583;28;20036;-70
2023/01/04 04:43:57;;;;;;;1.15;0.50;;;8.70;99.90;;;;;;5096656;28;20047;-71
2023/01/04 04:46:23;;;;;;;1.08;0.50;;;8.80;99.90;;;;;;5096262;28;20535;-70
2023/01/04 04:48:49;;;;;;;1.15;0.60;;;8.80;99.90;;;;;;5096813;28;20048;-70
2023/01/04 04:51:15;;;;;;;0.90;0.70;;;8.80;99.90;;;;;;5078644;28;20500;-71
2023/01/04 04:53:40;;;;;;;1.00;0.70;;;8.90;99.90;;;;;;5078527;28;20048;-71
2023/01/04 04:56:07;;;;;;;3.88;0.80;;;9.00;99.90;;;;;;5096402;28;20475;-71
2023/01/04 04:58:33;;;;;;;1.90;0.70;;;9.00;99.90;;;;;;5096264;28;20553;-70
2023/01/04 05:00:58;;;;;;;1.33;0.80;;;9.20;99.90;;;;;;5096320;28;20059;-71
2023/01/04 05:03:24;;;;;;;1.75;0.95;;;9.00;99.90;;;;;;5078371;28;20040;-68
2023/01/04 05:05:50;;;;;;;1.45;0.80;;;9.10;99.90;;;;;;5097055;28;20040;-71
2023/01/04 05:08:15;;;;;;;1.58;1.20;;;9.30;99.90;;;;;;5096181;28;20039;-69
2023/01/04 05:10:41;;;;;;;1.27;1.00;;;9.20;99.90;;;;;;5096420;28;20487;-72
2023/01/04 05:13:11;;;;;;;2.47;1.10;;;9.20;99.90;;;;;;5096088;28;20127;-70
2023/01/04 05:15:39;;;;;;;1.17;0.85;;;9.20;99.90;;;;;;5078767;28;20044;-69
2023/01/04 05:18:06;;;;;;;1.55;0.80;;;9.30;99.90;;;;;;5094701;28;20101;-71
2023/01/04 05:20:33;;;;;;;1.38;0.73;;;9.30;99.90;;;;;;5044595;28;20121;-70
2023/01/04 05:22:59;;;;;;;0.98;0.70;;;9.40;99.90;;;;;;5096312;28;20424;-71
2023/01/04 05:25:24;;;;;;;1.27;0.90;;;9.40;99.90;;;;;;5095881;28;20127;-70
2023/01/04 05:27:50;;;;;;;0.93;0.70;;;9.50;99.90;;;;;;5096047;28;20050;-74
2023/01/04 05:33:01;;;;;;;1.58;1.20;;;9.50;99.90;;;;;;5095721;28;20048;-70
2023/01/04 05:35:27;;;;;;;1.52;0.90;;;9.50;99.90;;;;;;5078071;28;20134;-70
2023/01/04 05:37:53;;;;;;;1.52;0.80;;;9.50;99.90;;;;;;5095629;28;20143;-72
2023/01/04 05:40:19;;;;;;;1.58;0.70;;;9.60;99.90;;;;;;5095439;28;20039;-75
2023/01/04 05:42:46;;;;;;;1.35;0.90;;;9.60;99.90;;;;;;5077610;28;20127;-72
2023/01/04 05:45:13;;;;;;;1.63;0.93;;;9.70;99.90;;;;;;5095479;28;20115;-71
2023/01/04 05:47:38;;;;;;;1.08;0.95;;;9.70;99.90;;;;;;5095375;28;20143;-73
2023/01/04 05:50:05;;;;;;;1.83;1.10;;;9.70;99.90;;;;;;5095369;28;20119;-70
2023/01/04 05:52:31;;;;;;;1.52;1.00;;;9.70;99.90;;;;;;5077963;28;20079;-73
2023/01/04 05:54:56;;;;;;;1.25;0.80;;;9.80;99.90;;;;;;5095126;28;20134;-70
2023/01/04 05:57:22;;;;;;;1.13;0.90;;;9.80;99.90;;;;;;5095834;28;20052;-73
2023/01/04 05:59:48;;;;;;;1.50;0.80;;;9.80;99.90;;;;;;5095064;28;20048;-70
2023/01/04 06:02:17;;;;;;;1.80;0.90;;;9.80;99.90;;;;;;5095082;28;20060;-71
2023/01/04 06:04:42;;;;;;;1.42;0.80;;;9.90;99.90;;;;;;5095096;28;20074;-71
2023/01/04 06:07:08;;;;;;;2.05;1.02;;;9.90;99.90;;;;;;5095850;28;20047;-72
2023/01/04 06:09:34;;;;;;;1.90;0.90;;;9.90;99.90;;;;;;5076953;28;20392;-74
2023/01/04 06:11:59;;;;;;;2.30;1.17;;;9.90;99.90;;;;;;5095053;28;20044;-72
2023/01/04 06:14:25;;;;;;;2.55;1.15;;;9.90;99.90;;;;;;5094931;28;20056;-76
2023/01/04 06:16:51;;;;;;;3.63;1.48;;;9.90;99.90;;;;;;5095370;28;20551;-76
2023/01/04 06:19:16;;;;;;;2.17;1.40;;;10.00;99.90;;;;;;5094740;28;20097;-76
2023/01/04 06:21:42;;;;;;;2.90;1.38;;;10.00;99.90;;;;;;5076713;28;20127;-77
2023/01/04 06:24:10;;;;;;;4.03;1.35;;;9.90;99.90;;;;;;5094751;28;20419;-76
2023/01/04 06:26:35;;;;;;;3.92;1.40;;;9.90;99.90;;;;;;5094641;28;20083;-75
2023/01/04 06:29:01;;;;;;;5.43;1.80;;;9.90;99.90;;;;;;5094273;28;20087;-76
2023/01/04 06:31:27;;;;;;;2.20;1.48;;;9.90;99.90;;;;;;5060068;28;20044;-77
2023/01/04 06:33:53;;;;;;;2.65;1.50;;;9.90;99.90;;;;;;5094522;28;20055;-77
2023/01/04 06:36:18;;;;;;;1.90;0.95;;;9.90;99.90;;;;;;5076291;28;20051;-79
2023/01/04 06:38:44;;;;;;;2.53;1.30;;;9.90;99.90;;;;;;5094432;28;20048;-75
2023/01/04 06:41:09;;;;;;;2.90;1.35;;;9.90;99.90;;;;;;5094727;28;20056;-73
2023/01/04 06:43:35;;;;;;;3.25;1.30;;;9.90;99.90;;;;;;5094384;28;20040;-76
2023/01/04 06:46:02;;;;;;;4.93;1.60;;;10.00;99.90;;;;;;5076352;28;20506;-77
2023/01/04 06:48:28;;;;;;;5.07;1.73;;;10.00;99.90;;;;;;5094254;28;20036;-75
2023/01/04 06:50:53;;;;;;;2.40;1.10;;;10.00;99.90;;;;;;5059795;28;20062;-76
2023/01/04 06:53:19;;;;;;;2.13;1.00;;;10.00;99.90;;;;;;5060209;28;20048;-78
2023/01/04 06:55:45;;;;;;;2.33;1.02;;;10.00;99.90;;;;;;5093819;28;20109;-78
2023/01/04 06:58:11;;;;;;;1.25;0.90;;;10.00;99.90;;;;;;5094957;28;20130;-75
2023/01/04 07:00:37;;;;;;;3.03;1.20;;;10.00;99.90;;;;;;5094007;28;20387;-76
2023/01/04 07:03:02;;;;;;;2.67;0.90;;;10.00;99.90;;;;;;5076218;28;20051;-76
2023/01/04 07:05:28;;;;;;;3.08;0.98;;;10.10;99.90;;;;;;5076086;28;20430;-79
2023/01/04 07:07:54;;;;;;;3.60;1.08;;;10.10;99.90;;;;;;5094062;28;20044;-74
2023/01/04 07:10:20;;;;;;;5.00;1.10;;;10.10;99.90;;;;;;5075969;28;20070;-76
2023/01/04 07:12:45;;;;;;;1.83;0.90;;;10.10;99.90;;;;;;5093899;28;20066;-73
2023/01/04 07:15:11;;;;;;;3.30;0.90;;;10.10;99.90;;;;;;5094491;28;20048;-74
2023/01/04 07:17:37;;;;;;;1.92;0.70;;;10.10;99.90;;;;;;5093575;28;20123;-73
2023/01/04 07:20:03;;;;;;;3.28;0.70;;;10.10;99.90;;;;;;5093966;28;20522;-72
2023/01/04 07:22:29;;;;;;;2.20;0.70;;;10.10;99.90;;;;;;5093677;28;20124;-73
2023/01/04 07:24:54;;;;;;;1.50;0.70;;;10.10;99.90;;;;;;5075819;28;20080;-72
2023/01/04 07:27:20;;;;;;;2.35;0.80;;;10.10;99.90;;;;;;5093732;28;20123;-74
2023/01/04 07:29:46;;;;;;;2.20;0.70;;;10.10;99.90;;;;;;5094498;28;20036;-71
2023/01/04 07:32:11;;;;;;;2.28;0.70;;;10.20;99.90;;;;;;5093683;28;20131;-72
2023/01/04 07:34:38;;;;;;;3.17;0.80;;;10.20;99.90;;;;;;5093597;28;20089;-72
2023/01/04 07:37:08;;;;;;;1.55;0.60;;;10.20;99.90;;;;;;5076577;28;20083;-73
2023/01/04 07:39:34;;;;;;;0.98;0.60;;;10.10;99.90;;;;;;5093184;28;20492;-72
2023/01/04 07:42:00;;;;;;;2.47;0.60;;;10.10;99.90;;;;;;5079122;28;20048;-73
2023/01/04 07:44:27;;;;;;;2.55;0.70;;;10.20;99.90;;;;;;5080032;28;20044;-74
2023/01/04 07:46:53;;;;;;;0.68;0.50;;;10.20;99.90;;;;;;5063397;28;20048;-75
2023/01/04 07:49:19;;;;;;;1.35;0.70;;;10.20;99.90;;;;;;5097816;28;20472;-76
2023/01/04 07:51:46;;;;;;;1.67;0.70;;;10.20;99.90;;;;;;5098220;28;20086;-73
2023/01/04 07:54:13;;;;;;;1.13;0.50;;;10.20;99.90;;;;;;5097716;28;20457;-71
2023/01/04 07:56:38;;;;;;;2.33;0.50;;;10.20;99.90;;;;;;5079085;28;20056;-73
2023/01/04 07:59:09;;;;;;;0.80;0.60;;;10.30;99.90;;;;;;5097539;28;20097;-74
2023/01/04 08:01:37;;;;;;;1.65;0.80;;;10.30;99.90;;;;;;5097302;28;20541;-72
2023/01/04 08:04:07;;;;;;;2.15;1.30;;;10.30;99.90;;;;;;5063204;28;20055;-73
2023/01/04 08:06:33;;;;;;;1.45;0.70;;;10.20;99.90;;;;;;5098157;28;20097;-70
2023/01/04 08:08:59;;;;;;;0.75;0.57;;;10.20;99.90;;;;;;5097020;28;20503;-72
2023/01/04 08:11:25;;;;;;;0.55;0.50;;;10.20;99.90;;;;;;5079309;28;20052;-72
2023/01/04 08:13:51;;;;;;;0.70;0.40;;;10.30;99.90;;;;;;5079154;28;20066;-73
2023/01/04 08:16:23;;;;;;;0.80;0.43;;;10.30;99.90;;;;;;5096886;28;20044;-74
2023/01/04 08:18:55;;;;;;;0.80;0.40;;;10.30;99.90;;;;;;5078882;28;20048;-72
2023/01/04 08:21:22;;;;;;;1.08;0.60;;;10.30;99.90;;;;;;5096728;28;20044;-73
2023/01/04 08:23:48;;;;;;;0.73;0.43;;;10.30;99.90;;;;;;5078888;28;20032;-73
2023/01/04 08:26:15;;;;;;;1.63;0.57;;;10.30;99.90;;;;;;5096955;28;20127;-76
2023/01/04 08:28:41;;;;;;;2.03;0.50;;;10.30;99.90;;;;;;5096928;28;20044;-72
2023/01/04 08:31:11;;;;;;;1.30;0.50;;;10.30;99.90;;;;;;5096900;28;20066;-74
2023/01/04 08:33:38;;;;;;;1.55;0.43;;;10.40;99.90;;;;;;5097980;28;20127;-74
2023/01/04 08:36:19;;;;;;;1.08;0.50;;;10.30;99.90;;;;;;5078754;28;20036;-76
2023/01/04 08:38:46;;;;;;;0.82;0.50;;;10.30;99.90;;;;;;5078861;28;20576;-74
2023/01/04 08:41:14;;;;;;;1.05;0.60;;;10.30;99.90;;;;;;5096765;28;20048;-74
2023/01/04 08:43:39;;;;;;;1.02;0.50;;;10.30;99.90;;;;;;5096716;28;20079;-73
2023/01/04 08:46:05;;;;;;;0.57;0.40;;;10.30;99.90;;;;;;5096590;28;20132;-70
2023/01/04 08:48:32;;;;;;;0.75;0.57;;;10.40;99.90;;;;;;5096860;28;20101;-74
2023/01/04 08:51:03;;;;;;;1.17;0.60;;;10.40;99.90;;;;;;5096423;28;20044;-75
2023/01/04 08:53:29;;;;;;;1.33;0.70;;;10.40;99.90;;;;;;5097087;28;20097;-75
2023/01/04 08:55:55;;;;;;;1.30;0.70;;;10.40;99.90;;;;;;5096500;28;20055;-74
2023/01/04 08:58:22;;;;;;;1.58;0.60;;;10.40;99.90;;;;;;5096417;28;20131;-73
2023/01/04 09:00:48;;;;;;;1.33;0.60;;;10.40;99.90;;;;;;5096315;28;20395;-74
2023/01/04 09:03:14;;;;;;;1.20;0.55;;;10.40;99.90;;;;;;5096282;28;20385;-75
2023/01/04 09:05:40;;;;;;;2.65;0.50;;;10.40;99.90;;;;;;5096268;28;20040;-73
2023/01/04 09:08:06;;;;;;;1.50;0.65;;;10.40;99.90;;;;;;5096258;28;20139;-73
2023/01/04 09:10:32;;;;;;;1.75;0.60;;;10.40;99.90;;;;;;5096703;28;20047;-72
2023/01/04 09:12:58;;;;;;;1.25;0.60;;;10.40;99.90;;;;;;5078065;28;20484;-72
2023/01/04 09:15:24;;;;;;;0.68;0.50;;;10.40;99.90;;;;;;5096277;28;20039;-74
2023/01/04 09:17:50;;;;;;;0.80;0.60;;;10.40;99.90;;;;;;5079207;28;20443;-73
2023/01/04 09:20:15;;;;;;;1.40;0.70;;;10.50;99.90;;;;;;5095782;28;20408;-74
2023/01/04 09:22:41;;;;;;;0.77;0.50;;;10.50;99.90;;;;;;5096323;28;20051;-72
2023/01/04 09:25:08;;;;;;;1.15;0.50;;;10.50;99.90;;;;;;5078625;28;20051;-71
2023/01/04 09:27:34;;;;;;;0.90;0.50;;;10.50;99.90;;;;;;5096662;28;20048;-72
2023/01/04 09:30:00;;;;;;;0.63;0.50;;;10.50;99.90;;;;;;5095945;28;20036;-69
2023/01/04 09:32:26;;;;;;;0.45;0.30;;;10.50;99.90;;;;;;5095892;28;20055;-71
2023/01/04 09:34:52;;;;;;;0.60;0.40;;;10.50;99.90;;;;;;5078335;28;20040;-71
2023/01/04 09:37:18;;;;;;;0.40;0.30;;;10.50;99.90;;;;;;5078171;28;20070;-71
2023/01/04 09:39:44;;;;;;;1.00;0.30;;;10.50;99.90;;;;;;5095686;28;20047;-72
2023/01/04 09:42:39;;;;;;;0.82;0.30;;;10.50;99.90;;;;;;5077663;28;20051;-69
2023/01/04 09:45:16;;;;;;;0.30;0.30;;;10.50;99.90;;;;;;5076946;28;20052;-68
2023/01/04 09:48:05;;;;;;;0.40;0.30;;;10.50;99.90;;;;;;5095676;28;20044;-69
2023/01/04 09:50:40;;;;;;;0.80;0.35;;;10.60;99.90;;;;;;5078519;28;20056;-69
2023/01/04 09:53:08;;;;;;;0.30;0.30;;;10.60;99.90;;;;;;5096320;28;20122;-70
2023/01/04 09:55:39;;;;;;;0.40;0.30;;;10.60;99.90;;;;;;5095278;28;20147;-68
2023/01/04 09:58:17;;;;;;;0.32;0.30;;;10.60;99.90;;;;;;5095402;28;20059;-69
2023/01/04 10:00:54;;;;;;;0.38;0.20;;;10.60;99.90;;;;;;5095251;28;20040;-76
2023/01/04 10:03:27;;;;;;;0.75;0.32;;;10.60;99.90;;;;;;5095465;28;20127;-73
2023/01/04 10:05:54;;;;;;;1.48;0.50;;;10.60;99.90;;;;;;5096105;28;20044;-72
2023/01/04 10:08:21;;;;;;;0.77;0.50;;;10.60;99.90;;;;;;5095441;28;20044;-71
2023/01/04 10:11:22;;;;;;;2.28;0.73;;;10.70;99.90;;;;;;5077245;28;20047;-71
2023/01/04 10:14:12;;;;;;;3.42;0.70;;;10.70;99.90;;;;;;5089202;28;20576;-72
2023/01/04 10:17:03;;;;;;;2.35;0.80;;;10.80;99.90;;;;;;5094999;28;20048;-72
2023/01/04 10:19:35;;;;;;;4.03;0.70;;;10.80;99.90;;;;;;5076970;28;20070;-73
2023/01/04 10:22:19;;;;;;;3.28;1.02;;;10.90;99.90;;;;;;5094860;28;20048;-69
2023/01/04 10:24:53;;;;;;;3.97;0.80;;;10.90;99.90;;;;;;5076989;28;20487;-71
2023/01/04 10:27:22;;;;;;;3.92;1.10;;;10.90;99.90;;;;;;5095706;28;20395;-80
2023/01/04 10:30:10;;;;;;;7.18;1.23;;;10.90;99.90;;;;;;5094459;28;20105;-72
2023/01/04 10:32:46;;;;;;;4.30;1.00;;;11.00;99.90;;;;;;5094004;28;20048;-70
2023/01/04 10:35:25;;;;;;;3.70;1.17;;;11.00;99.90;;;;;;5094348;28;20079;-69
2023/01/04 10:37:58;;;;;;;7.20;1.13;;;11.00;99.90;;;;;;5094661;28;20097;-68
2023/01/04 10:40:26;;;;;;;6.97;1.40;;;11.00;99.90;;;;;;5076766;28;20056;-69
2023/01/04 10:43:00;;;;;;;7.07;1.35;;;11.00;99.90;;;;;;5094570;28;20070;-66
2023/01/04 10:45:47;;;;;;;5.97;1.05;;;11.00;99.90;;;;;;5094530;28;20081;-70
2023/01/04 10:48:28;;;;;;;7.95;1.25;;;11.10;99.90;;;;;;5094805;28;20165;-69
2023/01/04 10:51:00;;;;;;;6.10;1.30;;;11.10;99.90;;;;;;5094438;28;20052;-69
2023/01/04 10:53:31;;;;;;;6.32;1.30;;;11.10;99.90;;;;;;5094928;28;20125;-68
2023/01/04 10:56:18;;;;;;;8.30;1.60;;;11.10;99.90;;;;;;5095066;28;20060;-72
2023/01/04 10:58:53;;;;;;;7.38;1.40;;;11.10;99.90;;;;;;5094764;28;20105;-68
2023/01/04 11:01:27;;;;;;;8.75;1.42;;;11.20;99.90;;;;;;5094282;28;20044;-69
2023/01/04 11:04:09;;;;;;;8.85;1.73;;;11.10;99.90;;;;;;5093671;28;20075;-68
2023/01/04 11:07:01;;;;;;;9.65;1.83;;;11.20;99.90;;;;;;5094604;28;20128;-71
2023/01/04 11:09:33;;;;;;;10.02;2.03;;;11.20;99.90;;;;;;5094121;28;20048;-69
2023/01/04 11:12:01;;;;;;;7.97;1.77;;;11.20;99.90;;;;;;5093557;28;20052;-68
2023/01/04 11:14:27;;;;;;;13.02;2.03;;;11.20;99.90;;;;;;5094331;28;20101;-68
2023/01/04 11:17:01;;;;;;;14.75;2.08;;;11.30;99.90;;;;;;5093879;28;20047;-69
2023/01/04 11:19:28;;;;;;;12.82;2.33;;;11.30;99.90;;;;;;5076581;28;20081;-67
2023/01/04 11:22:26;;;;;;;11.60;2.55;;;11.30;99.90;;;;;;5093791;28;20052;-67
2023/01/04 11:25:06;;;;;;;12.35;1.98;;;11.30;99.90;;;;;;5085942;28;20048;-75
2023/01/04 11:27:43;;;;;;;7.35;2.05;;;11.30;99.90;;;;;;5093476;28;20063;-67
2023/01/04 11:30:17;;;;;;;11.10;2.20;;;11.40;99.90;;;;;;5076365;28;20040;-67
2023/01/04 11:33:13;;;;;;;12.45;2.75;;;11.40;99.90;;;;;;5093866;28;20399;-67
2023/01/04 11:35:53;;;;;;;16.70;2.47;;;11.40;99.90;;;;;;5093819;28;20098;-69
2023/01/04 11:38:26;;;;;;;11.40;2.38;;;11.40;99.90;;;;;;5075978;28;20459;-67
2023/01/04 11:40:58;;;;;;;12.05;2.42;;;11.50;99.90;;;;;;5093677;28;20480;-67
2023/01/04 11:43:26;;;;;;;7.22;2.00;;;11.50;99.90;;;;;;5076097;28;20487;-67
2023/01/04 11:45:59;;;;;;;12.20;1.80;;;11.50;99.90;;;;;;5093622;28;20048;-67
2023/01/04 11:48:41;;;;;;;10.32;1.90;;;11.50;99.90;;;;;;5093769;28;20052;-67
2023/01/04 11:51:30;;;;;;;10.38;2.85;;;11.50;99.90;;;;;;5094194;28;20110;-67
2023/01/04 11:54:01;;;;;;;11.15;2.38;;;11.50;99.90;;;;;;5082088;28;20074;-67
2023/01/04 11:56:28;;;;;;;20.25;3.00;;;11.50;99.90;;;;;;5093317;28;20059;-69
2023/01/04 11:59:14;;;;;;;13.10;2.67;;;11.50;99.90;;;;;;5093365;28;20044;-65
2023/01/04 12:01:44;;;;;;;11.80;2.00;;;11.50;99.90;;;;;;5094082;28;20087;-68
2023/01/04 12:04:22;;;;;;;14.70;2.80;;;11.50;99.90;;;;;;5093478;28;20084;-65
2023/01/04 12:06:50;;;;;;;13.02;2.53;;;11.50;99.90;;;;;;5076248;28;20434;-65
2023/01/04 12:09:17;;;;;;;13.27;2.40;;;11.50;99.90;;;;;;5094235;28;20040;-69
2023/01/04 12:11:55;;;;;;;17.95;3.10;;;11.50;99.90;;;;;;5075464;28;20131;-67
2023/01/04 12:14:25;;;;;;;17.52;2.22;;;11.60;99.90;;;;;;5093618;28;20048;-66
2023/01/04 12:17:09;;;;;;;12.07;2.13;;;11.50;99.90;;;;;;5093569;28;20056;-66
2023/01/04 12:19:36;;;;;;;10.35;2.42;;;11.50;99.90;;;;;;5094067;28;20043;-69
2023/01/04 12:22:03;;;;;;;12.30;2.22;;;11.60;99.90;;;;;;5075647;28;20434;-66
2023/01/04 12:24:32;;;;;;;12.18;2.13;;;11.60;99.90;;;;;;5074613;28;20040;-71
2023/01/04 12:26:59;;;;;;;11.05;2.03;;;11.60;99.90;;;;;;5094544;28;20493;-67
2023/01/04 12:29:40;;;;;;;13.30;2.20;;;11.60;99.90;;;;;;5078939;28;20143;-67
2023/01/04 12:32:05;;;;;;;10.98;1.90;;;11.60;99.90;;;;;;5097569;28;20411;-67
2023/01/04 12:34:33;;;;;;;11.02;2.03;;;11.70;99.90;;;;;;5096831;28;20044;-66
2023/01/04 12:37:03;;;;;;;8.27;1.85;;;11.60;99.90;;;;;;5096830;28;20064;-66
2023/01/04 12:39:42;;;;;;;7.05;1.73;;;11.60;99.90;;;;;;5079517;28;20059;-69
2023/01/04 12:42:10;;;;;;;9.40;1.63;;;11.70;99.90;;;;;;5097565;28;20058;-66
2023/01/04 12:44:35;;;;;;;7.57;1.33;;;11.70;99.90;;;;;;5078300;28;20479;-67
2023/01/04 12:50:26;;;;;;;8.88;1.45;;;11.70;99.90;;;;;;5096894;28;20048;-65
2023/01/04 12:52:53;;;;;;;8.15;1.40;;;11.60;99.90;;;;;;5096485;28;20123;-67
2023/01/04 12:55:25;;;;;;;8.13;1.40;;;11.70;99.90;;;;;;5096341;28;20052;-67
2023/01/04 12:57:51;;;;;;;8.82;1.50;;;11.70;99.90;;;;;;5096508;28;20048;-67
2023/01/04 13:00:17;;;;;;;3.38;1.00;;;11.80;99.90;;;;;;5096090;28;20047;-72
2023/01/04 13:02:50;;;;;;;6.40;0.95;;;11.50;99.90;;;;;;5096332;28;20059;-71
2023/01/04 13:05:16;;;;;;;6.82;1.30;;;11.70;99.90;;;;;;5096323;28;20044;-71
2023/01/04 13:07:50;;;;;;;3.95;1.02;;;11.70;99.90;;;;;;5095709;28;20060;-71
2023/01/04 13:10:46;;;;;;;5.45;1.33;;;11.70;99.90;;;;;;5096079;28;20040;-70
2023/01/04 13:13:24;;;;;;;3.88;0.82;;;11.60;99.90;;;;;;5096605;28;20051;-71
2023/01/04 13:16:27;;;;;;;5.03;0.80;;;11.60;99.90;;;;;;5061368;28;20051;-66
2023/01/04 13:18:59;;;;;;;2.90;0.82;;;11.60;99.90;;;;;;5078344;28;20087;-70
2023/01/04 13:21:32;;;;;;;4.00;0.80;;;11.70;99.90;;;;;;5062123;28;20419;-71
2023/01/04 13:24:19;;;;;;;;;;;11.60;99.90;;;;;;5097193;28;20459;-73
2023/01/04 13:26:47;;;;;;;6.15;0.70;;;11.60;99.90;;;;;;5095956;28;19920;-70
2023/01/04 13:29:15;;;;;;;4.03;0.80;;;11.60;99.90;;;;;;5095833;28;20097;-68
2023/01/04 13:32:12;;;;;;;3.63;0.80;;;11.60;99.90;;;;;;5095820;28;20507;-69
2023/01/04 13:35:01;;;;;;;4.78;0.70;;;11.60;99.90;;;;;;5095881;28;20143;-68
2023/01/04 13:37:34;;;;;;;6.10;1.13;;;11.60;99.90;;;;;;5077116;28;20510;-69
2023/01/04 13:40:22;;;;;;;8.77;1.20;;;11.60;99.90;;;;;;5095628;28;20361;-71
2023/01/04 13:43:26;;;;;;;2.65;0.80;;;11.60;99.90;;;;;;5078088;28;20044;-72
2023/01/04 13:46:20;;;;;;;3.55;0.85;;;11.50;99.90;;;;;;5095918;28;20048;-74
2023/01/04 13:48:48;;;;;;;9.55;1.35;;;11.50;99.90;;;;;;5078007;28;20368;-72
2023/01/04 13:51:30;;;;;;;6.82;1.23;;;11.50;99.90;;;;;;5078421;28;20074;-70
2023/01/04 13:54:01;;;;;;;8.82;1.10;;;11.50;99.90;;;;;;5077664;28;20481;-73
2023/01/04 13:56:32;;;;;;;10.85;1.00;;;11.50;99.90;;;;;;5095610;28;20062;-73
2023/01/04 13:58:58;;;;;;;10.07;1.40;;;11.50;99.90;;;;;;5078177;28;20052;-67